Time;durP1;ratioP1;P1;durP2;ratioP2;P2;SDS_P1;SDS_P2;PMS_P1;PMS_P2;Temp;Humidity;BMP_temperature;BMP_pressure;BME280_temperature;BME280_humidity;BME280_pressure;Samples;Min_cycle;Max_cycle;Signal;HPM_P1;HPM_P2
2023/12/23 00:00:13;;;;;;;21.55;7.00;;;4.80;99.90;;;;;;5060517;28;20035;-84
2023/12/23 00:02:39;;;;;;;16.90;6.55;;;4.80;99.90;;;;;;5066322;28;20181;-83
2023/12/23 00:05:05;;;;;;;18.48;6.43;;;4.80;99.90;;;;;;5067345;28;20040;-84
2023/12/23 00:07:31;;;;;;;18.08;6.38;;;4.80;99.90;;;;;;5066940;28;20040;-84
2023/12/23 00:09:56;;;;;;;21.60;7.75;;;4.70;99.90;;;;;;5061600;28;20038;-84
2023/12/23 00:12:22;;;;;;;20.75;7.63;;;4.70;99.90;;;;;;5086664;28;20093;-84
2023/12/23 00:14:47;;;;;;;19.20;6.82;;;4.70;99.90;;;;;;5063440;28;20149;-84
2023/12/23 00:17:13;;;;;;;15.35;6.72;;;4.60;99.90;;;;;;5060916;28;20050;-84
2023/12/23 00:19:39;;;;;;;16.33;6.80;;;4.60;99.90;;;;;;5074693;28;20042;-84
2023/12/23 00:22:04;;;;;;;15.95;7.28;;;4.60;99.90;;;;;;5088060;28;20511;-84
2023/12/23 00:24:31;;;;;;;18.25;7.18;;;4.50;99.90;;;;;;5064440;28;20510;-84
2023/12/23 00:26:57;;;;;;;17.63;7.30;;;4.60;99.90;;;;;;5071645;28;20067;-84
2023/12/23 00:29:32;;;;;;;21.75;7.80;;;4.70;99.90;;;;;;5089007;28;20069;-83
2023/12/23 00:31:58;;;;;;;19.60;6.78;;;4.80;99.90;;;;;;5107244;28;20508;-83
2023/12/23 00:34:23;;;;;;;21.55;6.95;;;4.90;99.90;;;;;;5072148;28;20047;-83
2023/12/23 00:36:49;;;;;;;19.80;6.72;;;5.00;99.90;;;;;;5091662;28;20051;-85
2023/12/23 00:39:18;;;;;;;17.85;7.07;;;5.10;99.90;;;;;;5077169;28;20039;-84
2023/12/23 00:41:44;;;;;;;16.42;7.13;;;5.30;99.90;;;;;;5067638;28;20076;-85
2023/12/23 00:44:09;;;;;;;21.88;6.70;;;5.40;99.90;;;;;;5105250;28;20426;-86
2023/12/23 00:46:35;;;;;;;17.48;7.18;;;5.60;99.90;;;;;;5063352;28;20381;-83
2023/12/23 00:49:01;;;;;;;17.98;6.32;;;5.80;99.90;;;;;;5064146;28;20044;-83
2023/12/23 00:51:26;;;;;;;14.30;7.28;;;5.80;99.90;;;;;;5074895;28;20328;-84
2023/12/23 00:53:52;;;;;;;14.63;6.93;;;5.80;99.90;;;;;;5076847;28;20072;-83
2023/12/23 00:56:22;;;;;;;9.10;6.70;;;5.90;99.90;;;;;;5078856;28;20040;-83
2023/12/23 00:58:48;;;;;;;15.82;7.03;;;5.90;99.90;;;;;;5075440;28;20044;-83
2023/12/23 01:01:14;;;;;;;15.20;7.22;;;5.90;99.90;;;;;;5081958;28;20563;-84
2023/12/23 01:03:40;;;;;;;12.65;6.00;;;5.90;99.90;;;;;;5087141;28;20177;-84
2023/12/23 01:06:06;;;;;;;13.38;6.43;;;6.00;99.90;;;;;;5077498;28;20037;-83
2023/12/23 01:08:31;;;;;;;15.68;6.90;;;6.00;99.90;;;;;;5082398;28;20052;-83
2023/12/23 01:10:57;;;;;;;22.25;6.55;;;6.00;99.90;;;;;;5067029;28;20262;-83
2023/12/23 01:13:23;;;;;;;15.55;7.00;;;6.00;99.90;;;;;;5088469;28;20472;-84
2023/12/23 01:15:49;;;;;;;16.30;6.82;;;6.00;99.90;;;;;;5077626;28;20036;-85
2023/12/23 01:18:15;;;;;;;17.52;6.78;;;6.00;99.90;;;;;;5080867;28;20049;-83
2023/12/23 01:20:42;;;;;;;13.07;6.05;;;6.00;99.90;;;;;;5071723;28;20054;-84
2023/12/23 01:23:08;;;;;;;18.15;7.13;;;6.00;99.90;;;;;;5072206;28;20520;-83
2023/12/23 01:25:36;;;;;;;22.35;7.30;;;6.00;99.90;;;;;;5076103;28;20041;-84
2023/12/23 01:28:04;;;;;;;16.50;6.55;;;6.00;99.90;;;;;;5083588;28;20036;-83
2023/12/23 01:30:34;;;;;;;18.77;6.72;;;6.10;99.90;;;;;;5075858;28;20053;-83
2023/12/23 01:33:00;;;;;;;16.52;6.95;;;6.10;99.90;;;;;;5062361;28;20048;-84
2023/12/23 01:35:26;;;;;;;19.25;6.57;;;6.20;99.90;;;;;;5083284;28;20048;-83
2023/12/23 01:37:57;;;;;;;14.73;6.03;;;6.20;99.90;;;;;;5077553;28;20044;-84
2023/12/23 01:40:22;;;;;;;15.82;6.90;;;6.20;99.90;;;;;;5087015;28;20043;-84
2023/12/23 01:42:48;;;;;;;18.45;6.75;;;6.20;99.90;;;;;;5080324;28;20032;-83
2023/12/23 01:45:14;;;;;;;17.88;6.25;;;6.30;99.90;;;;;;5066993;28;20628;-83
2023/12/23 01:47:42;;;;;;;21.52;6.78;;;6.20;99.90;;;;;;5084157;28;20054;-83
2023/12/23 01:50:09;;;;;;;13.48;7.10;;;6.20;99.90;;;;;;5069022;28;20484;-84
2023/12/23 01:52:38;;;;;;;17.13;6.30;;;6.20;99.90;;;;;;5060916;28;20040;-83
2023/12/23 01:55:05;;;;;;;17.35;6.32;;;6.20;99.90;;;;;;5058130;28;20119;-83
2023/12/23 01:57:31;;;;;;;15.02;6.35;;;6.20;99.90;;;;;;5050867;28;20430;-84
2023/12/23 01:59:57;;;;;;;16.67;6.15;;;6.20;99.90;;;;;;5047642;28;20032;-82
2023/12/23 02:02:23;;;;;;;17.98;6.13;;;6.30;99.90;;;;;;5052039;28;20039;-84
2023/12/23 02:04:50;;;;;;;14.18;6.57;;;6.30;99.90;;;;;;5051675;28;20090;-83
2023/12/23 02:07:15;;;;;;;14.20;6.28;;;6.40;99.90;;;;;;5045463;28;20047;-82
2023/12/23 02:09:41;;;;;;;13.02;6.15;;;6.40;99.90;;;;;;5068965;28;20040;-83
2023/12/23 02:12:28;;;;;;;12.25;5.70;;;6.40;99.90;;;;;;5067137;28;20764;-83
2023/12/23 02:15:03;;;;;;;16.52;6.43;;;6.30;99.90;;;;;;5062563;28;20070;-83
2023/12/23 02:17:29;;;;;;;11.85;5.80;;;6.30;99.90;;;;;;5058980;28;20044;-84
2023/12/23 02:19:54;;;;;;;17.15;6.82;;;6.20;99.90;;;;;;5049515;28;20047;-83
2023/12/23 02:22:20;;;;;;;15.57;6.32;;;6.30;99.90;;;;;;5068124;28;20032;-83
2023/12/23 02:24:46;;;;;;;18.30;7.07;;;6.30;99.90;;;;;;5055917;28;20064;-84
2023/12/23 02:27:14;;;;;;;12.00;5.45;;;6.30;99.90;;;;;;5065354;28;20040;-83
2023/12/23 02:29:41;;;;;;;18.25;5.43;;;6.30;99.90;;;;;;5060233;28;20047;-85
2023/12/23 02:32:09;;;;;;;14.45;5.85;;;6.30;99.90;;;;;;5083272;28;20035;-83
2023/12/23 02:34:36;;;;;;;13.55;7.10;;;6.40;99.90;;;;;;5080750;28;20119;-83
2023/12/23 02:37:01;;;;;;;13.88;5.88;;;6.40;99.90;;;;;;5042974;28;20036;-83
2023/12/23 02:39:27;;;;;;;11.45;6.35;;;6.30;99.90;;;;;;5044873;28;20455;-84
2023/12/23 02:41:52;;;;;;;11.77;5.85;;;6.20;99.90;;;;;;5045024;28;20060;-83
2023/12/23 02:44:18;;;;;;;10.10;5.90;;;6.20;99.90;;;;;;5068109;28;20043;-83
2023/12/23 02:46:43;;;;;;;12.27;5.35;;;6.10;99.90;;;;;;5059532;28;20052;-82
2023/12/23 02:49:09;;;;;;;13.65;5.50;;;6.10;99.90;;;;;;5076285;28;20463;-81
2023/12/23 02:51:35;;;;;;;12.60;5.95;;;6.10;99.90;;;;;;5103804;28;20032;-82
2023/12/23 02:54:00;;;;;;;14.73;5.80;;;6.00;99.90;;;;;;5067364;28;20032;-82
2023/12/23 02:56:26;;;;;;;10.15;6.10;;;5.90;99.90;;;;;;5083355;28;20399;-82
2023/12/23 02:58:51;;;;;;;11.05;5.40;;;5.90;99.90;;;;;;5100234;28;20050;-82
2023/12/23 03:01:20;;;;;;;11.90;5.57;;;5.80;99.90;;;;;;5086820;28;20039;-82
2023/12/23 03:03:46;;;;;;;11.48;6.47;;;5.80;99.90;;;;;;5096149;28;20035;-82
2023/12/23 03:06:15;;;;;;;14.90;5.65;;;5.80;99.90;;;;;;5060741;28;20034;-82
2023/12/23 03:08:41;;;;;;;7.43;5.95;;;5.70;99.90;;;;;;5091098;28;20043;-82
2023/12/23 03:11:08;;;;;;;15.65;7.25;;;5.70;99.90;;;;;;5065715;28;20063;-82
2023/12/23 03:13:33;;;;;;;8.70;5.47;;;5.70;99.90;;;;;;5085158;28;20069;-83
2023/12/23 03:15:59;;;;;;;10.68;5.90;;;5.70;99.90;;;;;;5102264;28;20575;-83
2023/12/23 03:18:24;;;;;;;11.25;5.85;;;5.70;99.90;;;;;;5095387;28;20043;-82
2023/12/23 03:20:50;;;;;;;14.40;6.22;;;5.70;99.90;;;;;;5096701;28;20404;-82
2023/12/23 03:23:16;;;;;;;10.40;5.78;;;5.70;99.90;;;;;;5060601;28;20032;-82
2023/12/23 03:25:42;;;;;;;9.35;6.32;;;5.60;99.90;;;;;;5096172;28;20042;-81
2023/12/23 03:28:08;;;;;;;14.73;6.63;;;5.60;99.90;;;;;;5072421;28;20043;-82
2023/12/23 03:30:34;;;;;;;10.25;6.22;;;5.60;99.90;;;;;;5077668;28;20063;-82
2023/12/23 03:32:59;;;;;;;16.17;6.45;;;5.60;99.90;;;;;;5085195;28;20032;-82
2023/12/23 03:35:25;;;;;;;12.32;5.88;;;5.60;99.90;;;;;;5079101;28;20050;-81
2023/12/23 03:37:50;;;;;;;13.07;6.00;;;5.50;99.90;;;;;;5097835;28;20127;-82
2023/12/23 03:40:16;;;;;;;13.32;6.50;;;5.50;99.90;;;;;;5085773;28;20044;-82
2023/12/23 03:42:42;;;;;;;14.63;5.97;;;5.50;99.90;;;;;;5070032;28;20070;-82
2023/12/23 03:45:07;;;;;;;15.23;6.32;;;5.50;99.90;;;;;;5067938;28;20094;-81
2023/12/23 03:47:38;;;;;;;10.02;5.57;;;5.50;99.90;;;;;;5064055;28;20871;-82
2023/12/23 03:50:04;;;;;;;10.70;6.20;;;5.40;99.90;;;;;;5080770;28;20080;-82
2023/12/23 03:52:30;;;;;;;11.23;5.32;;;5.40;99.90;;;;;;5079136;28;20132;-82
2023/12/23 03:54:55;;;;;;;9.20;5.75;;;5.40;99.90;;;;;;5077297;28;20174;-82
2023/12/23 03:57:21;;;;;;;17.23;6.43;;;5.40;99.90;;;;;;5067866;28;20036;-82
2023/12/23 03:59:46;;;;;;;10.90;5.28;;;5.40;99.90;;;;;;5079976;28;20478;-82
2023/12/23 04:02:12;;;;;;;11.60;5.70;;;5.40;99.90;;;;;;5063760;28;20040;-82
2023/12/23 04:04:40;;;;;;;16.42;6.15;;;5.40;99.90;;;;;;5078021;28;20042;-82
2023/12/23 04:07:06;;;;;;;14.13;5.97;;;5.40;99.90;;;;;;5075448;28;20121;-82
2023/12/23 04:09:32;;;;;;;12.93;5.93;;;5.40;99.90;;;;;;5089502;28;20104;-82
2023/12/23 04:11:58;;;;;;;11.85;5.70;;;5.40;99.90;;;;;;5057280;28;20214;-82
2023/12/23 04:14:23;;;;;;;14.85;5.68;;;5.40;99.90;;;;;;5085120;28;20048;-82
2023/12/23 04:16:49;;;;;;;10.60;6.18;;;5.40;99.90;;;;;;5069922;28;20146;-82
2023/12/23 04:19:14;;;;;;;14.82;6.53;;;5.40;99.90;;;;;;5082088;28;20040;-82
2023/12/23 04:21:40;;;;;;;19.83;5.78;;;5.40;99.90;;;;;;5090270;28;20036;-82
2023/12/23 04:24:06;;;;;;;15.15;6.03;;;5.40;99.90;;;;;;5084481;28;20093;-82
2023/12/23 04:26:32;;;;;;;8.75;5.47;;;5.40;99.90;;;;;;5081985;28;20457;-83
2023/12/23 04:28:58;;;;;;;9.60;5.50;;;5.40;99.90;;;;;;5083248;28;20051;-82
2023/12/23 04:31:24;;;;;;;10.77;5.75;;;5.40;99.90;;;;;;5085743;28;20040;-83
2023/12/23 04:33:50;;;;;;;11.13;6.10;;;5.40;99.90;;;;;;5060332;28;20083;-82
2023/12/23 04:36:17;;;;;;;14.68;5.75;;;5.30;99.90;;;;;;5072774;28;20040;-82
2023/12/23 04:38:43;;;;;;;11.02;5.60;;;5.30;99.90;;;;;;5080072;28;20431;-82
2023/12/23 04:41:09;;;;;;;13.90;5.80;;;5.30;99.90;;;;;;5090531;28;20037;-83
2023/12/23 04:43:34;;;;;;;16.10;6.03;;;5.30;99.90;;;;;;5087192;28;20048;-82
2023/12/23 04:46:00;;;;;;;15.35;5.97;;;5.30;99.90;;;;;;5080152;28;20503;-82
2023/12/23 04:48:26;;;;;;;10.95;5.15;;;5.30;99.90;;;;;;5084217;28;20097;-82
2023/12/23 04:50:52;;;;;;;14.45;5.63;;;5.30;99.90;;;;;;5075506;28;20149;-82
2023/12/23 04:53:22;;;;;;;11.57;5.60;;;5.30;99.90;;;;;;5083296;28;20586;-82
2023/12/23 04:55:47;;;;;;;9.73;5.93;;;5.30;99.90;;;;;;5091117;28;20437;-82
2023/12/23 04:58:13;;;;;;;8.15;6.32;;;5.30;99.90;;;;;;5065496;28;20043;-82
2023/12/23 05:00:39;;;;;;;10.18;5.68;;;5.30;99.90;;;;;;5068396;28;20055;-82
2023/12/23 05:03:05;;;;;;;13.20;6.57;;;5.30;99.90;;;;;;5089879;28;20436;-82
2023/12/23 05:05:31;;;;;;;10.93;5.80;;;5.30;99.90;;;;;;5073829;28;20403;-82
2023/12/23 05:07:56;;;;;;;9.40;5.30;;;5.30;99.90;;;;;;5089420;28;20125;-82
2023/12/23 05:10:22;;;;;;;9.10;5.93;;;5.30;99.90;;;;;;5065805;28;20043;-82
2023/12/23 05:12:48;;;;;;;9.55;5.68;;;5.30;99.90;;;;;;5058551;28;20051;-82
2023/12/23 05:15:13;;;;;;;11.68;6.07;;;5.30;99.90;;;;;;5076492;28;20567;-82
2023/12/23 05:17:39;;;;;;;9.25;5.35;;;5.30;99.90;;;;;;5064180;28;20182;-82
2023/12/23 05:20:07;;;;;;;7.65;5.40;;;5.30;99.90;;;;;;5086699;28;20088;-82
2023/12/23 05:22:33;;;;;;;10.68;5.60;;;5.30;99.90;;;;;;5064380;28;20048;-82
2023/12/23 05:24:58;;;;;;;6.68;5.25;;;5.30;99.90;;;;;;5084424;28;20393;-82
2023/12/23 05:27:24;;;;;;;8.75;5.53;;;5.30;99.90;;;;;;5068173;28;20044;-82
2023/12/23 05:29:49;;;;;;;8.65;5.47;;;5.30;99.90;;;;;;5085506;28;20044;-82
2023/12/23 05:32:15;;;;;;;5.57;5.10;;;5.30;99.90;;;;;;5072069;28;20040;-83
2023/12/23 05:34:41;;;;;;;7.82;5.10;;;5.30;99.90;;;;;;5081480;28;20067;-82
2023/12/23 05:37:06;;;;;;;10.30;5.95;;;5.40;99.90;;;;;;5075170;28;20392;-83
2023/12/23 05:39:32;;;;;;;5.40;4.88;;;5.30;99.90;;;;;;5055102;28;20119;-83
2023/12/23 05:41:58;;;;;;;11.55;5.45;;;5.30;99.90;;;;;;5082095;28;20107;-82
2023/12/23 05:44:24;;;;;;;7.15;4.97;;;5.30;99.90;;;;;;5090256;28;20076;-82
2023/12/23 05:46:50;;;;;;;9.65;5.43;;;5.30;99.90;;;;;;5087137;28;20072;-82
2023/12/23 05:49:15;;;;;;;8.90;4.90;;;5.40;99.90;;;;;;5071201;28;20130;-82
2023/12/23 05:51:41;;;;;;;12.50;4.53;;;5.30;99.90;;;;;;5075466;28;20185;-82
2023/12/23 05:54:06;;;;;;;10.23;5.03;;;5.40;99.90;;;;;;5081420;28;20483;-82
2023/12/23 05:56:32;;;;;;;10.77;5.88;;;5.30;99.90;;;;;;5076268;28;20503;-82
2023/12/23 05:58:58;;;;;;;13.27;7.60;;;5.30;99.90;;;;;;5066614;28;20039;-82
2023/12/23 06:01:23;;;;;;;11.52;7.30;;;5.40;99.90;;;;;;5057462;28;20032;-82
2023/12/23 06:03:49;;;;;;;12.15;8.05;;;5.40;99.90;;;;;;5056403;28;20076;-82
2023/12/23 06:06:14;;;;;;;9.15;5.43;;;5.40;99.90;;;;;;5056367;28;20474;-82
2023/12/23 06:08:40;;;;;;;7.28;5.13;;;5.40;99.90;;;;;;5070289;28;20040;-82
2023/12/23 06:11:07;;;;;;;8.30;5.00;;;5.40;99.90;;;;;;5076442;28;20595;-83
2023/12/23 06:13:33;;;;;;;6.32;5.38;;;5.40;99.90;;;;;;5075493;28;20422;-82
2023/12/23 06:16:05;;;;;;;6.45;5.35;;;5.40;99.90;;;;;;5079618;28;20044;-82
2023/12/23 06:18:31;;;;;;;10.93;6.13;;;5.40;99.90;;;;;;5055386;28;20056;-83
2023/12/23 06:20:57;;;;;;;6.15;5.00;;;5.40;99.90;;;;;;5075224;28;20089;-82
2023/12/23 06:23:23;;;;;;;6.53;5.93;;;5.50;99.90;;;;;;5075692;28;20040;-82
2023/12/23 06:25:48;;;;;;;5.85;5.22;;;5.40;99.90;;;;;;5077951;28;20232;-83
2023/12/23 06:28:14;;;;;;;6.25;5.60;;;5.50;99.90;;;;;;5085964;28;20483;-82
2023/12/23 06:30:39;;;;;;;6.28;5.50;;;5.40;99.90;;;;;;5081894;28;20368;-82
2023/12/23 06:33:05;;;;;;;5.68;5.18;;;5.40;99.90;;;;;;5076094;28;20121;-82
2023/12/23 06:35:31;;;;;;;5.57;5.07;;;5.40;99.90;;;;;;5056303;28;20037;-82
2023/12/23 06:37:56;;;;;;;5.95;5.38;;;5.40;99.90;;;;;;5076002;28;20072;-82
2023/12/23 06:40:22;;;;;;;6.68;5.30;;;5.30;99.90;;;;;;5073056;28;20036;-82
2023/12/23 06:42:48;;;;;;;8.18;6.35;;;5.40;99.90;;;;;;5080486;28;20076;-82
2023/12/23 06:45:14;;;;;;;9.32;5.10;;;5.40;99.90;;;;;;5074259;28;20036;-82
2023/12/23 06:47:40;;;;;;;5.40;4.90;;;5.30;99.90;;;;;;5069324;28;20086;-82
2023/12/23 06:50:06;;;;;;;7.63;5.30;;;5.30;99.90;;;;;;5086011;28;20068;-82
2023/12/23 06:52:32;;;;;;;7.05;6.15;;;5.30;99.90;;;;;;5074844;28;20628;-82
2023/12/23 06:54:58;;;;;;;6.90;4.60;;;5.20;99.90;;;;;;5059063;28;20147;-82
2023/12/23 06:57:23;;;;;;;5.13;4.70;;;5.20;99.90;;;;;;5074833;28;20123;-82
2023/12/23 06:59:49;;;;;;;7.30;5.50;;;5.20;99.90;;;;;;5076752;28;20532;-82
2023/12/23 07:02:15;;;;;;;5.82;4.82;;;5.20;99.90;;;;;;5085086;28;20046;-82
2023/12/23 07:04:40;;;;;;;6.45;5.00;;;5.20;99.90;;;;;;5057990;28;20080;-83
2023/12/23 07:07:06;;;;;;;5.28;4.82;;;5.20;99.90;;;;;;5074362;28;20039;-83
2023/12/23 07:09:32;;;;;;;5.22;4.75;;;5.20;99.90;;;;;;5073457;28;20045;-83
2023/12/23 07:11:58;;;;;;;6.68;4.70;;;5.20;99.90;;;;;;5070805;28;20046;-82
2023/12/23 07:14:24;;;;;;;6.82;4.93;;;5.10;99.90;;;;;;5086060;28;20036;-82
2023/12/23 07:16:49;;;;;;;5.30;4.90;;;5.10;99.90;;;;;;5068752;28;20130;-82
2023/12/23 07:19:16;;;;;;;28.70;12.25;;;5.00;99.90;;;;;;5066179;28;20421;-82
2023/12/23 07:21:42;;;;;;;6.13;5.30;;;5.00;99.90;;;;;;5057016;28;20119;-82
2023/12/23 07:24:07;;;;;;;7.97;5.20;;;5.00;99.90;;;;;;5074047;28;20477;-82
2023/12/23 07:26:35;;;;;;;6.50;5.10;;;5.00;99.90;;;;;;5069493;28;20048;-82
2023/12/23 07:29:02;;;;;;;5.50;5.00;;;5.00;99.90;;;;;;5074766;28;20420;-82
2023/12/23 07:31:32;;;;;;;6.20;5.43;;;5.00;99.90;;;;;;5085596;28;20040;-82
2023/12/23 07:33:58;;;;;;;5.93;5.32;;;5.00;99.90;;;;;;5061334;28;20123;-82
2023/12/23 07:36:23;;;;;;;6.22;5.65;;;4.90;99.90;;;;;;5057031;28;20116;-82
2023/12/23 07:38:49;;;;;;;6.93;5.47;;;4.90;99.90;;;;;;5074434;28;20567;-82
2023/12/23 07:41:15;;;;;;;5.93;5.28;;;4.90;99.90;;;;;;5072368;28;20046;-82
2023/12/23 07:43:41;;;;;;;5.55;5.03;;;4.90;99.90;;;;;;5072472;28;20119;-82
2023/12/23 07:46:07;;;;;;;6.88;5.53;;;4.90;99.90;;;;;;5072996;28;20036;-82
2023/12/23 07:48:32;;;;;;;7.75;5.50;;;5.00;99.90;;;;;;5071004;28;20374;-82
2023/12/23 07:50:58;;;;;;;6.75;5.47;;;4.90;99.90;;;;;;5042274;28;20044;-82
2023/12/23 07:53:23;;;;;;;6.43;5.93;;;5.00;99.90;;;;;;5083735;28;20093;-83
2023/12/23 07:55:49;;;;;;;6.10;5.53;;;5.00;99.90;;;;;;5064130;28;20549;-82
2023/12/23 07:58:15;;;;;;;5.55;5.03;;;5.00;99.90;;;;;;5044848;28;20533;-82
2023/12/23 08:00:40;;;;;;;6.65;5.90;;;5.00;99.90;;;;;;5044052;28;20048;-82
2023/12/23 08:03:06;;;;;;;5.60;5.18;;;5.00;99.90;;;;;;5040868;28;20035;-82
2023/12/23 08:05:34;;;;;;;5.97;5.57;;;4.90;99.90;;;;;;5051976;28;20495;-82
2023/12/23 08:07:59;;;;;;;11.48;7.45;;;5.00;99.90;;;;;;5066357;28;20795;-82
2023/12/23 08:10:25;;;;;;;11.07;5.80;;;4.90;99.90;;;;;;5058933;28;20124;-82
2023/12/23 08:12:50;;;;;;;7.75;5.40;;;5.00;99.90;;;;;;5068902;28;20040;-82
2023/12/23 08:15:16;;;;;;;7.88;4.90;;;5.00;99.90;;;;;;5044148;28;20044;-82
2023/12/23 08:17:41;;;;;;;7.05;5.25;;;5.00;99.90;;;;;;5063822;28;20133;-82
2023/12/23 08:20:07;;;;;;;6.57;4.85;;;4.90;99.90;;;;;;5066981;28;20472;-82
2023/12/23 08:22:34;;;;;;;5.30;4.80;;;4.90;99.90;;;;;;5046617;28;20043;-82
2023/12/23 08:24:59;;;;;;;6.10;5.07;;;5.00;99.90;;;;;;5063457;28;20051;-82
2023/12/23 08:27:25;;;;;;;5.20;4.70;;;5.00;99.90;;;;;;5060897;28;20039;-82
2023/12/23 08:29:51;;;;;;;5.20;4.72;;;5.00;99.90;;;;;;5052508;28;20069;-82
2023/12/23 08:32:16;;;;;;;5.88;4.90;;;5.00;99.90;;;;;;5064011;28;20044;-82
2023/12/23 08:34:46;;;;;;;5.82;5.32;;;5.00;99.90;;;;;;5045842;28;20043;-82
2023/12/23 08:37:11;;;;;;;6.50;6.00;;;5.10;99.90;;;;;;5042725;28;20127;-82
2023/12/23 08:39:37;;;;;;;7.18;6.50;;;5.00;99.90;;;;;;5055588;28;20115;-82
2023/12/23 08:42:03;;;;;;;6.60;5.78;;;5.00;99.90;;;;;;5059387;28;20093;-82
2023/12/23 08:44:28;;;;;;;5.30;4.80;;;5.10;99.90;;;;;;5054925;28;20421;-82
2023/12/23 08:46:54;;;;;;;7.47;5.65;;;5.10;99.90;;;;;;5041597;28;20102;-82
2023/12/23 08:49:19;;;;;;;5.35;4.85;;;5.10;99.90;;;;;;5059686;28;20466;-82
2023/12/23 08:51:45;;;;;;;6.03;5.50;;;5.10;99.90;;;;;;5059305;28;20048;-82
2023/12/23 08:54:12;;;;;;;5.35;4.88;;;5.10;99.90;;;;;;5089797;28;20447;-82
2023/12/23 08:56:38;;;;;;;5.50;4.47;;;5.00;99.90;;;;;;5085493;28;20099;-82
2023/12/23 08:59:03;;;;;;;5.38;4.97;;;5.10;99.90;;;;;;5065003;28;20064;-82
2023/12/23 09:01:29;;;;;;;5.47;5.18;;;5.10;99.90;;;;;;5059810;28;20110;-82
2023/12/23 09:03:55;;;;;;;5.93;5.45;;;5.10;99.90;;;;;;5060639;28;20036;-82
2023/12/23 09:06:20;;;;;;;5.82;5.32;;;5.10;99.90;;;;;;5056946;28;20119;-82
2023/12/23 09:08:46;;;;;;;6.22;5.75;;;5.10;99.90;;;;;;5077545;28;20082;-82
2023/12/23 09:11:12;;;;;;;5.50;5.20;;;5.10;99.90;;;;;;5062985;28;20075;-82
2023/12/23 09:13:37;;;;;;;5.68;5.15;;;5.10;99.90;;;;;;5078643;28;20084;-82
2023/12/23 09:16:04;;;;;;;6.15;5.63;;;5.20;99.90;;;;;;5079233;28;20475;-81
2023/12/23 09:18:30;;;;;;;5.63;5.20;;;5.20;99.90;;;;;;5081762;28;20851;-82
2023/12/23 09:20:56;;;;;;;5.85;5.45;;;5.20;99.90;;;;;;5078261;28;20032;-82
2023/12/23 09:23:21;;;;;;;5.82;5.53;;;5.20;99.90;;;;;;5078813;28;20437;-82
2023/12/23 09:25:47;;;;;;;5.90;5.50;;;5.20;99.90;;;;;;5082953;28;20206;-82
2023/12/23 09:28:13;;;;;;;5.90;5.50;;;5.30;99.90;;;;;;5077481;28;20396;-82
2023/12/23 09:30:39;;;;;;;6.57;5.88;;;5.30;99.90;;;;;;5082800;28;20044;-82
2023/12/23 09:33:05;;;;;;;5.93;5.47;;;5.30;99.90;;;;;;5072210;28;20093;-82
2023/12/23 09:35:32;;;;;;;5.57;5.18;;;5.30;99.90;;;;;;5082549;28;20385;-82
2023/12/23 09:37:58;;;;;;;5.65;5.25;;;5.30;99.90;;;;;;5061210;28;20048;-82
2023/12/23 09:40:24;;;;;;;5.93;4.85;;;5.30;99.90;;;;;;5076770;28;20502;-82
2023/12/23 09:42:50;;;;;;;5.60;5.10;;;5.30;99.90;;;;;;5081758;28;20115;-82
2023/12/23 09:45:18;;;;;;;5.97;5.40;;;5.40;99.90;;;;;;5077338;28;20055;-82
2023/12/23 09:47:44;;;;;;;5.78;5.30;;;5.40;99.90;;;;;;5076753;28;20056;-82
2023/12/23 09:50:11;;;;;;;6.15;5.65;;;5.30;99.90;;;;;;5062660;28;20147;-82
2023/12/23 09:52:37;;;;;;;6.13;5.53;;;5.40;99.90;;;;;;5065809;28;20130;-81
2023/12/23 09:55:03;;;;;;;6.05;5.40;;;5.30;99.90;;;;;;5063281;28;20397;-82
2023/12/23 09:57:30;;;;;;;6.13;5.63;;;5.30;99.90;;;;;;5060956;28;20062;-82
2023/12/23 09:59:57;;;;;;;6.28;5.00;;;5.40;99.90;;;;;;5080200;28;20370;-82
2023/12/23 10:02:23;;;;;;;6.03;5.47;;;5.40;99.90;;;;;;5059523;28;20397;-81
2023/12/23 10:04:49;;;;;;;107.90;57.08;;;5.40;99.90;;;;;;5082363;28;20308;-82
2023/12/23 10:07:15;;;;;;;8.27;6.10;;;5.40;99.90;;;;;;5062330;28;20038;-82
2023/12/23 10:09:41;;;;;;;5.85;5.35;;;5.40;99.90;;;;;;5074963;28;20534;-82
2023/12/23 10:12:07;;;;;;;6.47;5.88;;;5.40;99.90;;;;;;5058022;28;20118;-82
2023/12/23 10:14:33;;;;;;;14.70;7.70;;;5.40;99.90;;;;;;5063544;28;20102;-82
2023/12/23 10:16:59;;;;;;;15.70;8.18;;;5.40;99.90;;;;;;5083401;28;20097;-82
2023/12/23 10:19:24;;;;;;;5.20;4.80;;;5.40;99.90;;;;;;5061112;28;20040;-82
2023/12/23 10:21:50;;;;;;;5.55;5.10;;;5.40;99.90;;;;;;5056946;28;20484;-82
2023/12/23 10:24:16;;;;;;;5.68;5.28;;;5.30;99.90;;;;;;5082772;28;20042;-82
2023/12/23 10:26:42;;;;;;;6.65;6.05;;;5.40;99.90;;;;;;5065418;28;20127;-82
2023/12/23 10:29:10;;;;;;;6.18;5.70;;;5.40;99.90;;;;;;5076594;28;20028;-82
2023/12/23 10:31:36;;;;;;;6.25;5.75;;;5.40;99.90;;;;;;5067094;28;20032;-82
2023/12/23 10:34:11;;;;;;;20.83;12.55;;;5.40;99.90;;;;;;5063660;28;20078;-82
2023/12/23 10:36:40;;;;;;;33.78;14.45;;;5.50;99.90;;;;;;5077581;28;20039;-82
2023/12/23 10:39:15;;;;;;;6.10;5.50;;;5.50;99.90;;;;;;5058913;28;20094;-82
2023/12/23 10:41:50;;;;;;;6.32;5.72;;;5.50;99.90;;;;;;5061543;28;20123;-82
2023/12/23 10:44:17;;;;;;;6.18;5.57;;;5.50;99.90;;;;;;5062235;28;20040;-82
2023/12/23 10:46:44;;;;;;;6.28;5.68;;;5.50;99.90;;;;;;5086723;28;20046;-82
2023/12/23 10:49:11;;;;;;;6.15;5.50;;;5.60;99.90;;;;;;5096100;28;20077;-82
2023/12/23 10:51:38;;;;;;;6.47;5.90;;;5.60;99.90;;;;;;5103858;28;20438;-82
2023/12/23 10:54:05;;;;;;;6.43;5.75;;;5.60;99.90;;;;;;5083977;28;20482;-82
2023/12/23 10:56:31;;;;;;;6.45;5.85;;;5.70;99.90;;;;;;5081620;28;20054;-82
2023/12/23 10:58:57;;;;;;;7.63;6.88;;;5.70;99.90;;;;;;5058941;28;20035;-82
2023/12/23 11:01:27;;;;;;;7.97;6.80;;;5.70;99.90;;;;;;5078915;28;20028;-82
2023/12/23 11:03:54;;;;;;;6.97;6.25;;;5.80;99.90;;;;;;5064840;28;20036;-82
2023/12/23 11:06:22;;;;;;;8.68;7.05;;;5.80;99.90;;;;;;5082150;28;20491;-82
2023/12/23 11:08:50;;;;;;;8.13;7.20;;;5.80;99.90;;;;;;5080000;28;20044;-82
2023/12/23 11:11:17;;;;;;;7.95;6.60;;;5.80;99.90;;;;;;5076881;28;20039;-82
2023/12/23 11:13:43;;;;;;;8.45;6.10;;;5.90;99.90;;;;;;5078907;28;20180;-82
2023/12/23 11:16:10;;;;;;;7.18;6.47;;;5.90;99.90;;;;;;5097219;28;20157;-82
2023/12/23 11:18:39;;;;;;;6.95;6.25;;;5.90;99.90;;;;;;5079297;28;20043;-82
2023/12/23 11:21:15;;;;;;;23.40;14.50;;;5.90;99.90;;;;;;5084032;28;20346;-82
2023/12/23 11:23:41;;;;;;;6.40;5.80;;;5.90;99.90;;;;;;5086144;28;20040;-82
2023/12/23 11:26:39;;;;;;;6.97;6.20;;;5.90;99.90;;;;;;5078393;28;20047;-82
2023/12/23 11:29:11;;;;;;;8.27;6.43;;;5.90;99.90;;;;;;5077248;28;20036;-81
2023/12/23 11:31:37;;;;;;;8.40;6.32;;;5.90;99.90;;;;;;5080893;28;20118;-82
2023/12/23 11:34:16;;;;;;;7.43;6.72;;;6.00;99.90;;;;;;5077254;28;20126;-82
2023/12/23 11:36:43;;;;;;;7.72;6.85;;;6.10;99.90;;;;;;5062342;28;20035;-83
2023/12/23 11:39:13;;;;;;;9.10;7.50;;;6.10;99.90;;;;;;5062341;28;20044;-82
2023/12/23 11:41:43;;;;;;;10.45;8.88;;;6.10;99.90;;;;;;5061732;28;20101;-83
2023/12/23 11:44:12;;;;;;;7.70;6.65;;;6.10;99.90;;;;;;5085900;28;20040;-82
2023/12/23 11:46:41;;;;;;;7.00;6.30;;;6.10;99.90;;;;;;5063864;28;20610;-82
2023/12/23 11:49:09;;;;;;;7.65;6.55;;;6.10;99.90;;;;;;5077973;28;20123;-82
2023/12/23 11:51:36;;;;;;;7.68;6.88;;;6.10;99.90;;;;;;5077333;28;20076;-82
2023/12/23 11:54:02;;;;;;;7.32;6.43;;;6.10;99.90;;;;;;5063689;28;20044;-82
2023/12/23 11:56:28;;;;;;;7.75;6.95;;;6.10;99.90;;;;;;5082178;28;20036;-82
2023/12/23 11:58:53;;;;;;;7.45;6.40;;;6.20;99.90;;;;;;5082148;28;20093;-81
2023/12/23 12:01:19;;;;;;;8.95;6.88;;;6.20;99.90;;;;;;5076405;28;20508;-82
2023/12/23 12:03:48;;;;;;;6.95;6.15;;;6.20;99.90;;;;;;5071581;28;20071;-82
2023/12/23 12:06:13;;;;;;;7.80;6.78;;;6.20;99.90;;;;;;5075584;28;20442;-82
2023/12/23 12:08:40;;;;;;;7.28;6.25;;;6.20;99.90;;;;;;5076752;28;20046;-82
2023/12/23 12:11:06;;;;;;;9.40;6.95;;;6.30;99.90;;;;;;5079519;28;20170;-82
2023/12/23 12:13:36;;;;;;;9.70;6.53;;;6.30;99.90;;;;;;5056735;28;20036;-82
2023/12/23 12:16:02;;;;;;;8.27;6.88;;;6.30;99.90;;;;;;5057457;28;20079;-82
2023/12/23 12:18:28;;;;;;;8.82;6.70;;;6.40;99.90;;;;;;5062391;28;20036;-81
2023/12/23 12:20:53;;;;;;;7.63;6.57;;;6.40;99.90;;;;;;5057534;28;20048;-82
2023/12/23 12:23:19;;;;;;;9.27;6.90;;;6.40;99.90;;;;;;5073819;28;20036;-82
2023/12/23 12:25:49;;;;;;;7.43;6.20;;;6.50;99.90;;;;;;5083469;28;20039;-82
2023/12/23 12:28:16;;;;;;;8.77;6.95;;;6.50;99.90;;;;;;5079284;28;20381;-82
2023/12/23 12:30:43;;;;;;;10.10;7.20;;;6.40;99.90;;;;;;5081849;28;20067;-82
2023/12/23 12:33:09;;;;;;;9.30;6.90;;;6.50;99.90;;;;;;5084994;28;20516;-82
2023/12/23 12:35:35;;;;;;;8.77;7.05;;;6.60;99.90;;;;;;5066477;28;20040;-82
2023/12/23 12:38:01;;;;;;;9.45;6.90;;;6.60;99.90;;;;;;5063689;28;20109;-82
2023/12/23 12:40:27;;;;;;;10.10;7.10;;;6.70;99.90;;;;;;5061971;28;20036;-82
2023/12/23 12:42:54;;;;;;;11.05;7.82;;;6.70;99.90;;;;;;5078937;28;20093;-82
2023/12/23 12:45:23;;;;;;;10.77;7.70;;;6.80;99.90;;;;;;5060945;28;20066;-82
2023/12/23 12:47:50;;;;;;;9.27;7.13;;;6.80;99.90;;;;;;5092175;28;20067;-82